Time;durP1;ratioP1;P1;durP2;ratioP2;P2;SDS_P1;SDS_P2;PMS_P1;PMS_P2;Temp;Humidity;BMP_temperature;BMP_pressure;BME280_temperature;BME280_humidity;BME280_pressure;Samples;Min_cycle;Max_cycle;Signal;HPM_P1;HPM_P2
2022/10/09 00:02:10;;;;;;;3.88;1.98;;;12.20;52.30;;;;;;4998056;28;20065;-40
2022/10/09 00:04:38;;;;;;;6.68;2.50;;;12.30;52.40;;;;;;5001812;28;20057;-43
2022/10/09 00:07:05;;;;;;;8.50;2.42;;;12.20;52.40;;;;;;5001617;28;20505;-43
2022/10/09 00:09:32;;;;;;;4.00;2.47;;;12.20;52.40;;;;;;5002117;28;20061;-41
2022/10/09 00:11:59;;;;;;;7.75;2.85;;;12.10;52.40;;;;;;5002530;28;20058;-41
2022/10/09 00:14:26;;;;;;;8.57;2.95;;;12.10;52.40;;;;;;5003083;28;20085;-42
2022/10/09 00:16:54;;;;;;;9.73;2.80;;;12.10;52.40;;;;;;4999853;28;20050;-42
2022/10/09 00:19:23;;;;;;;8.65;3.72;;;12.10;52.40;;;;;;5003102;28;20409;-42
2022/10/09 00:21:50;;;;;;;6.88;3.60;;;12.10;52.50;;;;;;5001087;28;20054;-42
2022/10/09 00:24:17;;;;;;;4.40;2.55;;;12.00;52.50;;;;;;5001829;28;20056;-45
2022/10/09 00:26:47;;;;;;;8.00;3.40;;;12.00;52.60;;;;;;5000813;28;20061;-46
2022/10/09 00:29:14;;;;;;;7.35;3.05;;;12.00;52.60;;;;;;5002475;28;20061;-40
2022/10/09 00:31:41;;;;;;;9.40;3.30;;;11.90;52.50;;;;;;4997978;28;20046;-40
2022/10/09 00:34:08;;;;;;;8.27;2.97;;;11.90;53.10;;;;;;5000497;28;20046;-45
2022/10/09 00:36:37;;;;;;;8.18;3.08;;;11.90;52.60;;;;;;5000294;28;20054;-43
2022/10/09 00:39:04;;;;;;;6.07;2.72;;;11.90;52.70;;;;;;5003548;28;20076;-43
2022/10/09 00:41:33;;;;;;;4.70;2.60;;;11.80;52.70;;;;;;5001064;28;20057;-41
2022/10/09 00:44:02;;;;;;;3.90;2.55;;;11.80;52.80;;;;;;5002427;28;20053;-41
2022/10/09 00:46:34;;;;;;;5.47;2.90;;;11.80;52.90;;;;;;4998973;28;20054;-41
2022/10/09 00:49:13;;;;;;;5.30;2.80;;;11.70;52.90;;;;;;5002117;28;20054;-41
2022/10/09 00:51:45;;;;;;;6.28;2.78;;;11.70;53.00;;;;;;5000330;28;20053;-42
2022/10/09 00:54:16;;;;;;;5.95;2.67;;;11.70;53.00;;;;;;5002369;28;20058;-45
2022/10/09 00:56:43;;;;;;;7.90;2.95;;;11.70;53.00;;;;;;5000820;28;20501;-46
2022/10/09 00:59:11;;;;;;;8.07;3.08;;;11.70;53.00;;;;;;4998314;28;20440;-41
2022/10/09 01:01:40;;;;;;;5.65;2.45;;;11.70;53.00;;;;;;4999457;28;20080;-43
2022/10/09 01:04:07;;;;;;;7.88;2.72;;;11.70;53.00;;;;;;5001826;28;20069;-40
2022/10/09 01:06:48;;;;;;;10.32;3.25;;;11.60;53.00;;;;;;5001422;28;20058;-44
2022/10/09 01:09:19;;;;;;;7.40;2.63;;;11.60;53.00;;;;;;5000153;28;20057;-41
2022/10/09 01:11:56;;;;;;;6.40;2.47;;;11.60;53.10;;;;;;5000638;28;20401;-44
2022/10/09 01:14:27;;;;;;;5.80;2.95;;;11.60;53.20;;;;;;5004132;28;20050;-45
2022/10/09 01:17:02;;;;;;;7.60;3.03;;;11.60;53.20;;;;;;5001039;28;20076;-42
2022/10/09 01:19:48;;;;;;;10.00;2.50;;;11.50;53.20;;;;;;5001097;28;20049;-46
2022/10/09 01:22:30;;;;;;;4.70;2.47;;;11.50;53.20;;;;;;5002206;28;20046;-41
2022/10/09 01:25:05;;;;;;;7.72;2.80;;;11.50;53.20;;;;;;5004225;28;20057;-40
2022/10/09 01:27:35;;;;;;;4.25;2.58;;;11.50;53.20;;;;;;5003829;28;20049;-39
2022/10/09 01:30:06;;;;;;;5.32;3.03;;;11.50;53.20;;;;;;5001102;28;20065;-47
2022/10/09 01:32:37;;;;;;;4.53;3.10;;;11.40;53.30;;;;;;5003157;28;20052;-42
2022/10/09 01:35:06;;;;;;;7.53;3.13;;;11.40;53.30;;;;;;5003758;28;20418;-46
2022/10/09 01:37:34;;;;;;;6.97;3.30;;;11.40;53.30;;;;;;4997824;28;20053;-42
2022/10/09 01:40:03;;;;;;;10.23;3.22;;;11.40;53.30;;;;;;4999371;28;20061;-43
2022/10/09 01:42:33;;;;;;;6.50;3.30;;;11.30;53.30;;;;;;4999524;28;20054;-47
2022/10/09 01:45:00;;;;;;;10.50;3.88;;;11.30;53.40;;;;;;5004844;28;20058;-42
2022/10/09 01:47:27;;;;;;;6.03;3.28;;;11.30;53.40;;;;;;5004280;28;20060;-40
2022/10/09 01:50:01;;;;;;;4.55;2.80;;;11.30;53.50;;;;;;5004290;28;20072;-41
2022/10/09 01:52:36;;;;;;;7.32;3.30;;;11.30;53.40;;;;;;5001857;28;20053;-44
2022/10/09 01:55:16;;;;;;;5.85;3.00;;;11.20;53.40;;;;;;5003719;28;20054;-40
2022/10/09 01:57:52;;;;;;;5.47;2.90;;;11.20;53.40;;;;;;5003832;28;20642;-40
2022/10/09 02:00:20;;;;;;;7.70;3.13;;;11.20;53.40;;;;;;5002462;28;20060;-41
2022/10/09 02:02:49;;;;;;;4.70;3.20;;;11.20;53.40;;;;;;5003919;28;20046;-42
2022/10/09 02:05:20;;;;;;;6.35;3.22;;;11.20;53.50;;;;;;5004739;28;20065;-44
2022/10/09 02:07:48;;;;;;;4.65;2.90;;;11.10;53.40;;;;;;5005984;28;20061;-43
2022/10/09 02:10:17;;;;;;;6.25;3.10;;;11.10;53.50;;;;;;5004379;28;20810;-40
2022/10/09 02:12:50;;;;;;;10.00;3.65;;;11.10;53.50;;;;;;5002726;28;20402;-43
2022/10/09 02:15:18;;;;;;;5.60;3.20;;;11.10;53.50;;;;;;5004637;28;20477;-45
2022/10/09 02:17:49;;;;;;;5.95;3.10;;;11.10;53.50;;;;;;5004327;28;20053;-40
2022/10/09 02:20:22;;;;;;;7.57;3.20;;;11.00;53.50;;;;;;5003991;28;20057;-46
2022/10/09 02:22:49;;;;;;;7.35;3.17;;;11.00;53.50;;;;;;5002945;28;20409;-41
2022/10/09 02:25:18;;;;;;;6.47;3.50;;;11.00;53.50;;;;;;5005198;28;20054;-43
2022/10/09 02:27:47;;;;;;;10.32;3.65;;;11.00;53.60;;;;;;5005091;28;20053;-41
2022/10/09 02:30:16;;;;;;;9.35;4.30;;;11.00;53.60;;;;;;5004857;28;20505;-41
2022/10/09 02:32:43;;;;;;;5.07;3.17;;;11.00;53.60;;;;;;5000708;28;20050;-41
2022/10/09 02:35:10;;;;;;;5.97;3.50;;;10.90;53.60;;;;;;5000072;28;20069;-44
2022/10/09 02:37:37;;;;;;;8.27;3.40;;;10.90;53.70;;;;;;5004724;28;20405;-49
2022/10/09 02:40:06;;;;;;;6.40;3.50;;;10.90;53.70;;;;;;5006266;28;20058;-45
2022/10/09 02:42:33;;;;;;;7.40;2.90;;;10.90;53.70;;;;;;5005690;28;20061;-51
2022/10/09 02:45:01;;;;;;;7.07;3.72;;;10.90;53.70;;;;;;5005650;28;20413;-52
2022/10/09 02:47:29;;;;;;;3.85;3.20;;;10.80;53.70;;;;;;5003365;28;20050;-50
2022/10/09 02:49:56;;;;;;;4.63;3.15;;;10.80;53.80;;;;;;5004595;28;20060;-48
2022/10/09 02:52:23;;;;;;;4.07;2.92;;;10.80;53.80;;;;;;5006574;28;20046;-50
2022/10/09 02:54:51;;;;;;;6.00;3.35;;;10.80;53.80;;;;;;5001661;28;20406;-41
2022/10/09 02:57:18;;;;;;;5.45;3.20;;;10.70;53.80;;;;;;5002113;28;20528;-43
2022/10/09 02:59:45;;;;;;;6.50;3.17;;;10.80;53.80;;;;;;5003619;28;20050;-40
2022/10/09 03:02:14;;;;;;;4.90;3.00;;;10.70;53.80;;;;;;5003001;28;20410;-40
2022/10/09 03:04:41;;;;;;;6.90;3.25;;;10.70;53.90;;;;;;5003232;28;20057;-42
2022/10/09 03:07:08;;;;;;;6.18;3.10;;;10.70;53.90;;;;;;5003418;28;20054;-47
2022/10/09 03:09:35;;;;;;;6.40;3.13;;;10.70;54.00;;;;;;5002196;28;20049;-44
2022/10/09 03:12:02;;;;;;;4.43;3.13;;;10.70;54.00;;;;;;5003785;28;20421;-41
2022/10/09 03:14:30;;;;;;;7.28;3.53;;;10.60;54.00;;;;;;5004290;28;20069;-45
2022/10/09 03:16:57;;;;;;;5.43;2.80;;;10.60;54.10;;;;;;5001218;28;20520;-42
2022/10/09 03:19:26;;;;;;;7.35;3.30;;;10.60;54.10;;;;;;5002069;28;20061;-43
2022/10/09 03:21:53;;;;;;;6.75;3.25;;;10.60;54.10;;;;;;5004248;28;20068;-41
2022/10/09 03:24:20;;;;;;;5.00;3.10;;;10.60;54.10;;;;;;5003491;28;20068;-40
2022/10/09 03:26:47;;;;;;;6.00;3.00;;;10.60;54.10;;;;;;4998791;28;20425;-40
2022/10/09 03:29:15;;;;;;;4.47;3.00;;;10.50;54.10;;;;;;5004112;28;20062;-42
2022/10/09 03:31:42;;;;;;;6.43;3.50;;;10.50;54.10;;;;;;4995749;28;20057;-45
2022/10/09 03:34:10;;;;;;;7.15;2.83;;;10.50;54.10;;;;;;4997312;28;20449;-40
2022/10/09 03:36:39;;;;;;;5.93;2.95;;;10.50;54.20;;;;;;4998887;28;20050;-43
2022/10/09 03:39:06;;;;;;;8.30;3.20;;;10.50;54.20;;;;;;5002912;28;20054;-42
2022/10/09 03:41:34;;;;;;;6.10;3.25;;;10.50;54.20;;;;;;5000282;28;20064;-41
2022/10/09 03:44:01;;;;;;;6.45;3.45;;;10.50;54.10;;;;;;5000116;28;20045;-41
2022/10/09 03:46:28;;;;;;;6.40;3.65;;;10.50;54.20;;;;;;4997708;28;20053;-39
2022/10/09 03:48:56;;;;;;;6.63;3.45;;;10.40;54.10;;;;;;5003146;28;20413;-46
2022/10/09 03:51:23;;;;;;;7.25;3.22;;;10.40;54.20;;;;;;5001298;28;20054;-44
2022/10/09 03:53:51;;;;;;;5.85;3.28;;;10.40;54.20;;;;;;5002569;28;20053;-41
2022/10/09 03:56:19;;;;;;;6.07;2.92;;;10.40;54.20;;;;;;5003122;28;20537;-42
2022/10/09 03:58:46;;;;;;;6.68;3.10;;;10.40;54.30;;;;;;5003045;28;20057;-40
2022/10/09 04:01:13;;;;;;;6.15;3.28;;;10.40;54.30;;;;;;4997722;28;20062;-42
2022/10/09 04:03:40;;;;;;;5.93;3.20;;;10.30;54.30;;;;;;5001638;28;20424;-41
2022/10/09 04:06:08;;;;;;;5.15;3.08;;;10.30;54.30;;;;;;5002256;28;20049;-42
2022/10/09 04:08:35;;;;;;;7.32;2.70;;;10.30;54.40;;;;;;5000252;28;20061;-43
2022/10/09 04:11:04;;;;;;;5.00;2.65;;;10.30;54.40;;;;;;5001859;28;20046;-43
2022/10/09 04:13:31;;;;;;;6.90;3.25;;;10.30;54.40;;;;;;5003860;28;20374;-42
2022/10/09 04:15:58;;;;;;;6.22;3.05;;;10.30;54.40;;;;;;4996140;28;20062;-42
2022/10/09 04:18:26;;;;;;;5.50;3.17;;;10.30;54.40;;;;;;4996624;28;20057;-41
2022/10/09 04:20:54;;;;;;;6.40;3.00;;;10.20;54.40;;;;;;5000038;28;20060;-43
2022/10/09 04:23:27;;;;;;;6.47;3.05;;;10.30;54.40;;;;;;5000119;28;20060;-41
2022/10/09 04:25:54;;;;;;;6.20;3.00;;;10.20;54.40;;;;;;5001193;28;20057;-40
2022/10/09 04:28:23;;;;;;;4.75;3.20;;;10.20;54.40;;;;;;5000083;28;20073;-42
2022/10/09 04:30:50;;;;;;;4.88;2.75;;;10.20;54.40;;;;;;4996875;28;20050;-41
2022/10/09 04:33:18;;;;;;;5.10;3.08;;;10.20;54.40;;;;;;5002158;28;20045;-40
2022/10/09 04:35:46;;;;;;;4.43;2.90;;;10.20;54.40;;;;;;5001373;28;20053;-44
2022/10/09 04:38:13;;;;;;;4.72;2.80;;;10.20;54.40;;;;;;5000555;28;20062;-44
2022/10/09 04:40:41;;;;;;;4.65;2.80;;;10.10;54.30;;;;;;5001027;28;20093;-40
2022/10/09 04:43:09;;;;;;;4.93;2.78;;;10.10;54.30;;;;;;5003328;28;20402;-43
2022/10/09 04:45:40;;;;;;;4.53;2.92;;;10.10;54.30;;;;;;4998187;28;20489;-41
2022/10/09 04:48:08;;;;;;;5.57;3.03;;;10.10;54.40;;;;;;5004866;28;20050;-42
2022/10/09 04:50:38;;;;;;;6.55;3.13;;;10.00;54.30;;;;;;5004413;28;20050;-41
2022/10/09 04:53:05;;;;;;;6.88;2.95;;;10.10;54.40;;;;;;5003594;28;20046;-46
2022/10/09 04:55:32;;;;;;;4.05;2.80;;;10.00;54.40;;;;;;5005185;28;20057;-44
2022/10/09 04:58:00;;;;;;;5.40;2.88;;;10.00;54.40;;;;;;5006908;28;20046;-40
2022/10/09 05:00:27;;;;;;;4.72;2.90;;;10.00;54.50;;;;;;5002335;28;20404;-42
2022/10/09 05:02:55;;;;;;;3.60;2.40;;;10.00;54.50;;;;;;5006279;28;20049;-42
2022/10/09 05:05:23;;;;;;;6.35;2.80;;;10.00;54.50;;;;;;5004328;28;20065;-45
2022/10/09 05:07:50;;;;;;;7.07;2.70;;;10.00;54.60;;;;;;5005045;28;20498;-41
2022/10/09 05:10:17;;;;;;;6.00;3.13;;;10.00;54.60;;;;;;5003084;28;20058;-40
2022/10/09 05:12:45;;;;;;;3.97;2.75;;;9.90;54.60;;;;;;5006389;28;20069;-42
2022/10/09 05:15:12;;;;;;;4.90;2.90;;;10.00;54.70;;;;;;5002089;28;20053;-42
2022/10/09 05:17:39;;;;;;;4.57;2.83;;;9.90;54.60;;;;;;5000275;28;20060;-43
2022/10/09 05:20:09;;;;;;;5.18;2.60;;;9.90;54.70;;;;;;5000587;28;20057;-41
2022/10/09 05:22:36;;;;;;;5.30;2.80;;;9.90;54.70;;;;;;5002595;28;20053;-47
2022/10/09 05:25:04;;;;;;;9.13;4.53;;;9.90;54.70;;;;;;5004186;28;20053;-44
2022/10/09 05:27:31;;;;;;;13.27;7.25;;;9.90;54.70;;;;;;5002511;28;20061;-41
2022/10/09 05:30:04;;;;;;;17.35;6.97;;;9.90;54.70;;;;;;5000854;28;20057;-42
2022/10/09 05:32:32;;;;;;;9.00;3.97;;;9.90;54.70;;;;;;5000085;28;20490;-41
2022/10/09 05:34:59;;;;;;;6.15;2.92;;;9.90;54.70;;;;;;5005877;28;20053;-42
2022/10/09 05:37:28;;;;;;;4.75;2.33;;;9.80;54.70;;;;;;5005102;28;20065;-40
2022/10/09 05:39:55;;;;;;;4.72;2.85;;;9.80;54.70;;;;;;5005325;28;20061;-42
2022/10/09 05:42:22;;;;;;;5.53;2.75;;;9.80;55.10;;;;;;5003317;28;20056;-42
2022/10/09 05:44:50;;;;;;;4.30;2.63;;;9.80;54.70;;;;;;5002617;28;20053;-44
2022/10/09 05:47:18;;;;;;;5.75;2.58;;;9.80;54.80;;;;;;5004305;28;20073;-39
2022/10/09 05:49:45;;;;;;;4.47;2.90;;;9.80;54.80;;;;;;5003971;28;20057;-40
2022/10/09 05:52:13;;;;;;;5.15;2.58;;;9.80;54.70;;;;;;5004744;28;20436;-41
2022/10/09 05:54:41;;;;;;;5.32;2.42;;;9.70;54.70;;;;;;5001815;28;20056;-39
2022/10/09 05:57:09;;;;;;;5.15;2.85;;;9.80;54.70;;;;;;5001191;28;20497;-40
2022/10/09 05:59:36;;;;;;;4.80;2.40;;;9.70;54.70;;;;;;5002802;28;20054;-39
2022/10/09 06:02:04;;;;;;;29.55;12.52;;;9.70;54.70;;;;;;4997754;28;20057;-39
2022/10/09 06:04:31;;;;;;;45.97;19.88;;;9.70;54.80;;;;;;5002996;28;20053;-42
2022/10/09 06:06:58;;;;;;;18.75;7.80;;;9.70;54.80;;;;;;5003377;28;20504;-41
2022/10/09 06:09:26;;;;;;;10.30;5.35;;;9.70;54.80;;;;;;5003941;28;20096;-40
2022/10/09 06:11:55;;;;;;;6.45;3.00;;;9.70;54.80;;;;;;4997480;28;20050;-40
2022/10/09 06:14:23;;;;;;;4.88;2.78;;;9.70;54.90;;;;;;5001917;28;20050;-42
2022/10/09 06:16:50;;;;;;;4.95;2.65;;;9.70;54.90;;;;;;5001808;28;20050;-40
2022/10/09 06:19:18;;;;;;;5.05;2.45;;;9.70;54.90;;;;;;5005640;28;20061;-39
2022/10/09 06:21:46;;;;;;;3.72;2.65;;;9.60;54.90;;;;;;5003666;28;20050;-44
2022/10/09 06:24:18;;;;;;;6.43;2.65;;;9.70;55.00;;;;;;5004722;28;20054;-43
2022/10/09 06:26:45;;;;;;;6.30;3.17;;;9.70;55.10;;;;;;5000892;28;20054;-43
2022/10/09 06:29:14;;;;;;;5.20;2.90;;;9.70;55.10;;;;;;4998675;28;20096;-39
2022/10/09 06:31:41;;;;;;;4.95;2.65;;;9.70;55.20;;;;;;5002723;28;20077;-40
2022/10/09 06:34:09;;;;;;;6.05;2.42;;;9.70;55.20;;;;;;5003145;28;20057;-41
2022/10/09 06:36:37;;;;;;;3.65;2.22;;;9.70;55.20;;;;;;5000658;28;20054;-40
2022/10/09 06:39:05;;;;;;;5.00;2.58;;;9.70;55.20;;;;;;5005116;28;20061;-40
2022/10/09 06:41:33;;;;;;;4.18;2.20;;;9.70;55.30;;;;;;5002673;28;20413;-41
2022/10/09 06:44:03;;;;;;;4.88;2.50;;;9.70;55.40;;;;;;5002281;28;20065;-40
2022/10/09 06:46:33;;;;;;;4.50;2.70;;;9.70;55.50;;;;;;4993454;28;20061;-42
2022/10/09 06:49:03;;;;;;;7.25;2.80;;;9.70;55.50;;;;;;5004309;28;20510;-42
2022/10/09 06:51:35;;;;;;;6.60;2.50;;;9.70;55.60;;;;;;5001602;28;20517;-40
2022/10/09 06:54:10;;;;;;;4.05;2.47;;;9.80;55.70;;;;;;5005091;28;20500;-40
2022/10/09 06:56:40;;;;;;;5.75;2.45;;;9.80;55.70;;;;;;5002023;28;20062;-40
2022/10/09 06:59:10;;;;;;;4.10;2.03;;;9.80;55.70;;;;;;5004727;28;20058;-40
2022/10/09 07:01:38;;;;;;;3.85;2.40;;;9.90;55.80;;;;;;5003504;28;20054;-41
2022/10/09 07:04:09;;;;;;;3.80;2.40;;;9.90;55.80;;;;;;5004316;28;20057;-41
2022/10/09 07:06:39;;;;;;;8.95;2.90;;;9.90;55.90;;;;;;5004926;28;20054;-39
2022/10/09 07:09:09;;;;;;;8.02;2.42;;;9.90;56.00;;;;;;5004109;28;20049;-41
2022/10/09 07:11:38;;;;;;;4.88;2.25;;;10.00;56.10;;;;;;5003157;28;20425;-41
2022/10/09 07:14:07;;;;;;;4.82;2.67;;;10.00;56.10;;;;;;5004125;28;20045;-40
2022/10/09 07:16:36;;;;;;;49.85;18.05;;;10.00;56.20;;;;;;4999795;28;20061;-44
2022/10/09 07:19:07;;;;;;;22.42;9.75;;;10.10;56.30;;;;;;5000765;28;20053;-40
2022/10/09 07:21:34;;;;;;;14.15;6.15;;;10.10;56.50;;;;;;5002325;28;20418;-39
2022/10/09 07:24:02;;;;;;;10.27;4.45;;;10.10;56.50;;;;;;5004126;28;20058;-45
2022/10/09 07:26:32;;;;;;;8.68;3.75;;;10.20;56.70;;;;;;5004352;28;20058;-44
2022/10/09 07:29:00;;;;;;;5.60;3.13;;;10.20;56.60;;;;;;5001814;28;20405;-40
2022/10/09 07:31:27;;;;;;;7.90;2.60;;;10.20;56.70;;;;;;5000934;28;20056;-39
2022/10/09 07:33:55;;;;;;;8.75;2.85;;;10.20;57.20;;;;;;5003737;28;20061;-41
2022/10/09 07:36:25;;;;;;;7.70;2.85;;;10.30;56.90;;;;;;5001885;28;20058;-42
2022/10/09 07:38:53;;;;;;;11.77;3.10;;;10.30;57.00;;;;;;5002169;28;20054;-41
2022/10/09 07:41:22;;;;;;;12.95;3.50;;;10.40;57.20;;;;;;5002516;28;20057;-44
2022/10/09 07:43:49;;;;;;;6.25;2.90;;;10.50;57.40;;;;;;4998693;28;20615;-40
2022/10/09 07:46:18;;;;;;;7.25;2.47;;;10.50;57.40;;;;;;4997450;28;20066;-41
2022/10/09 07:48:46;;;;;;;8.95;2.92;;;10.50;57.40;;;;;;4999012;28;20054;-41
2022/10/09 07:51:16;;;;;;;7.45;3.25;;;10.60;57.50;;;;;;5001448;28;20417;-40
2022/10/09 07:53:45;;;;;;;7.38;2.70;;;10.70;57.60;;;;;;5003786;28;20057;-42
2022/10/09 07:56:16;;;;;;;5.47;2.47;;;10.70;57.60;;;;;;5000414;28;20053;-45
2022/10/09 07:58:48;;;;;;;4.75;2.20;;;10.80;57.80;;;;;;5003888;28;20054;-41
2022/10/09 08:01:15;;;;;;;5.47;2.47;;;10.80;57.80;;;;;;5001525;28;20058;-39
2022/10/09 08:03:43;;;;;;;5.07;2.70;;;10.90;57.80;;;;;;5001450;28;20065;-39
2022/10/09 08:06:10;;;;;;;5.38;2.40;;;10.90;57.90;;;;;;5002045;28;20057;-43
2022/10/09 08:08:37;;;;;;;6.47;2.70;;;11.00;58.00;;;;;;5001380;28;20107;-44
2022/10/09 08:11:10;;;;;;;5.65;2.83;;;11.10;58.00;;;;;;5002158;28;20053;-45
2022/10/09 08:13:38;;;;;;;8.32;3.03;;;11.10;58.10;;;;;;5001144;28;20062;-45
2022/10/09 08:16:06;;;;;;;5.85;2.53;;;11.20;58.10;;;;;;5001325;28;20046;-41
2022/10/09 08:18:34;;;;;;;5.63;2.72;;;11.30;58.20;;;;;;5004272;28;20061;-42
2022/10/09 08:21:04;;;;;;;7.60;2.53;;;11.30;58.10;;;;;;5002989;28;20053;-41
2022/10/09 08:23:31;;;;;;;6.28;2.80;;;11.40;58.10;;;;;;5003823;28;20413;-40
2022/10/09 08:25:59;;;;;;;8.70;2.97;;;11.40;58.10;;;;;;5002349;28;20080;-41
2022/10/09 08:28:27;;;;;;;7.28;2.70;;;11.50;58.20;;;;;;5001724;28;20061;-46
2022/10/09 08:30:55;;;;;;;6.68;2.60;;;11.60;58.20;;;;;;5001253;28;20049;-40
2022/10/09 08:33:23;;;;;;;7.53;2.90;;;11.60;58.30;;;;;;5003536;28;20058;-40
2022/10/09 08:35:51;;;;;;;6.65;3.70;;;11.70;58.30;;;;;;5002156;28;20417;-44
2022/10/09 08:38:19;;;;;;;9.18;2.97;;;11.80;58.70;;;;;;5003452;28;20054;-41
2022/10/09 08:40:55;;;;;;;11.40;3.08;;;11.80;58.20;;;;;;5002215;28;20514;-41
2022/10/09 08:43:29;;;;;;;7.20;2.60;;;11.90;58.20;;;;;;5002240;28;20417;-41
2022/10/09 08:45:57;;;;;;;;;;;12.00;58.70;;;;;;5002523;28;20073;-41
2022/10/09 08:48:27;;;;;;;6.38;2.47;;;12.00;58.20;;;;;;5003013;28;19930;-40
2022/10/09 08:50:57;;;;;;;7.85;2.58;;;12.10;58.00;;;;;;5002141;28;20053;-40
2022/10/09 08:53:33;;;;;;;11.25;3.20;;;12.20;58.10;;;;;;5002187;28;20734;-40
2022/10/09 08:56:03;;;;;;;8.50;2.30;;;12.30;58.70;;;;;;5002828;28;20383;-39
2022/10/09 08:58:34;;;;;;;5.70;2.88;;;12.30;58.20;;;;;;5003278;28;20064;-43
2022/10/09 09:01:09;;;;;;;7.88;2.60;;;12.40;58.30;;;;;;5000478;28;20054;-42
2022/10/09 09:03:47;;;;;;;6.55;2.75;;;12.50;58.40;;;;;;5003207;28;20062;-42
2022/10/09 09:06:22;;;;;;;5.90;2.28;;;12.60;58.50;;;;;;5003564;28;20493;-44
2022/10/09 09:08:55;;;;;;;5.85;2.00;;;12.60;58.30;;;;;;5003269;28;20058;-40
2022/10/09 09:11:34;;;;;;;6.88;2.22;;;12.70;58.30;;;;;;5002360;28;20064;-38
2022/10/09 09:14:17;;;;;;;4.53;2.20;;;12.80;58.40;;;;;;5003328;28;20060;-41
2022/10/09 09:16:51;;;;;;;12.05;2.85;;;12.90;58.20;;;;;;5000661;28;20054;-43
2022/10/09 09:19:28;;;;;;;;;;;13.00;58.10;;;;;;5001215;28;20061;-40
2022/10/09 09:21:56;;;;;;;6.20;1.92;;;13.10;58.00;;;;;;5001787;28;19925;-40
2022/10/09 09:24:33;;;;;;;4.28;1.73;;;13.20;57.70;;;;;;5003012;28;20076;-41
2022/10/09 09:27:04;;;;;;;7.13;2.20;;;13.30;57.60;;;;;;5002444;28;20049;-40
2022/10/09 09:29:40;;;;;;;4.22;2.05;;;13.30;57.60;;;;;;5001380;28;20049;-42
2022/10/09 09:32:16;;;;;;;6.60;2.05;;;13.40;57.60;;;;;;5001123;28;20502;-41
2022/10/09 09:34:44;;;;;;;5.22;1.80;;;13.50;57.60;;;;;;5004031;28;20516;-40
2022/10/09 09:37:12;;;;;;;5.50;1.80;;;13.60;57.50;;;;;;5003580;28;20053;-39
2022/10/09 09:39:40;;;;;;;10.07;2.10;;;13.60;57.50;;;;;;5006118;28;20058;-46
2022/10/09 09:42:18;;;;;;;7.00;1.80;;;13.70;57.30;;;;;;5005451;28;20058;-41
2022/10/09 09:44:50;;;;;;;6.50;1.77;;;13.80;57.30;;;;;;5003907;28;20058;-40
2022/10/09 09:47:25;;;;;;;5.95;1.98;;;13.90;57.20;;;;;;4995696;28;20061;-41
2022/10/09 09:49:53;;;;;;;;;;;13.90;57.00;;;;;;5000705;28;20046;-46
2022/10/09 09:52:20;;;;;;;5.05;1.70;;;14.10;57.00;;;;;;5004883;28;19921;-39
2022/10/09 09:54:49;;;;;;;5.40;1.83;;;14.10;56.80;;;;;;5004103;28;20053;-39
2022/10/09 09:57:32;;;;;;;11.30;2.05;;;14.20;56.70;;;;;;5005029;28;20058;-42
2022/10/09 10:00:25;;;;;;;5.55;1.90;;;14.30;56.60;;;;;;4999927;28;20057;-40
2022/10/09 10:03:02;;;;;;;4.88;1.40;;;14.30;56.40;;;;;;4985789;28;20057;-42
2022/10/09 10:05:35;;;;;;;5.10;1.42;;;14.40;56.20;;;;;;5004270;28;20054;-43
2022/10/09 10:08:13;;;;;;;7.80;2.10;;;14.50;56.10;;;;;;5000544;28;20057;-43
2022/10/09 10:10:46;;;;;;;5.78;1.83;;;14.60;55.90;;;;;;4999105;28;20060;-43
2022/10/09 10:13:17;;;;;;;12.70;1.85;;;14.60;55.60;;;;;;5001084;28;20421;-41
2022/10/09 10:15:52;;;;;;;6.75;1.48;;;14.70;55.40;;;;;;5000274;28;20512;-43
2022/10/09 10:18:20;;;;;;;6.13;1.30;;;14.80;55.10;;;;;;4998937;28;20599;-43
2022/10/09 10:20:50;;;;;;;2.90;1.27;;;14.90;55.10;;;;;;4999701;28;20054;-44
2022/10/09 10:23:35;;;;;;;3.00;1.40;;;14.90;55.00;;;;;;5003878;28;20052;-42
2022/10/09 10:26:06;;;;;;;8.32;1.95;;;15.00;55.10;;;;;;5002519;28;20053;-42
2022/10/09 10:28:42;;;;;;;3.55;1.02;;;15.00;54.60;;;;;;5003249;28;20057;-42
2022/10/09 10:31:18;;;;;;;6.85;1.58;;;15.10;54.50;;;;;;5000572;28;20066;-41
2022/10/09 10:33:51;;;;;;;6.88;1.50;;;15.20;54.40;;;;;;5001013;28;20121;-42
2022/10/09 10:36:19;;;;;;;6.65;1.50;;;15.30;54.30;;;;;;4998362;28;20069;-39
2022/10/09 10:38:53;;;;;;;2.63;1.40;;;15.30;54.20;;;;;;5004542;28;20056;-42
2022/10/09 10:41:24;;;;;;;5.20;1.33;;;15.40;54.10;;;;;;4999300;28;20057;-42
2022/10/09 10:43:55;;;;;;;4.43;1.48;;;15.40;53.90;;;;;;5000290;28;20054;-41
2022/10/09 10:46:28;;;;;;;6.90;1.30;;;15.50;53.60;;;;;;5000509;28;20050;-42
2022/10/09 10:48:58;;;;;;;3.58;1.20;;;15.50;53.50;;;;;;5004112;28;20049;-40
2022/10/09 10:51:39;;;;;;;4.60;1.15;;;15.60;53.50;;;;;;5002369;28;20050;-40
2022/10/09 10:54:36;;;;;;;3.47;1.35;;;15.70;53.40;;;;;;5004057;28;20058;-40
2022/10/09 10:57:10;;;;;;;3.13;1.00;;;15.70;52.80;;;;;;5003409;28;20057;-42
2022/10/09 10:59:41;;;;;;;5.13;1.00;;;15.80;52.50;;;;;;5004405;28;20060;-40
2022/10/09 11:02:48;;;;;;;3.88;1.20;;;15.80;52.30;;;;;;4997647;28;20057;-45
2022/10/09 11:05:27;;;;;;;4.32;0.75;;;15.80;52.00;;;;;;4983228;28;20054;-41
2022/10/09 11:08:10;;;;;;;4.25;1.30;;;15.90;51.70;;;;;;5002639;28;20053;-41
2022/10/09 11:10:56;;;;;;;2.22;1.00;;;16.00;51.30;;;;;;4996199;28;20053;-41
2022/10/09 11:13:27;;;;;;;3.72;1.10;;;16.00;51.10;;;;;;5000049;28;20509;-43
2022/10/09 11:16:02;;;;;;;4.75;1.27;;;16.00;51.10;;;;;;4998861;28;20811;-41
2022/10/09 11:18:44;;;;;;;6.03;1.10;;;16.10;50.80;;;;;;5001133;28;20058;-42
2022/10/09 11:21:28;;;;;;;3.85;1.10;;;16.10;50.50;;;;;;5000727;28;20077;-40
2022/10/09 11:24:11;;;;;;;3.55;1.20;;;16.20;50.40;;;;;;5002637;28;20053;-43
2022/10/09 11:26:45;;;;;;;4.15;1.00;;;16.20;49.80;;;;;;5000565;28;20061;-42
2022/10/09 11:29:17;;;;;;;3.70;1.03;;;16.30;49.80;;;;;;4997180;28;20058;-41
2022/10/09 11:31:49;;;;;;;5.93;1.20;;;16.30;49.90;;;;;;4999417;28;20058;-44
2022/10/09 11:34:22;;;;;;;2.72;1.00;;;16.30;49.50;;;;;;5001381;28;20375;-41
2022/10/09 11:36:49;;;;;;;4.57;1.20;;;16.40;49.40;;;;;;5000382;28;20046;-43
2022/10/09 11:39:21;;;;;;;4.47;1.35;;;16.40;49.20;;;;;;5001952;28;20057;-46
2022/10/09 11:41:50;;;;;;;2.42;1.10;;;16.40;49.10;;;;;;5000931;28;20077;-43
2022/10/09 11:44:35;;;;;;;3.17;0.90;;;16.50;48.90;;;;;;5002061;28;20054;-42
2022/10/09 11:47:09;;;;;;;2.58;1.02;;;16.50;48.20;;;;;;5001643;28;20078;-43
2022/10/09 11:49:50;;;;;;;5.40;1.17;;;16.50;48.00;;;;;;5004078;28;20056;-42
2022/10/09 11:52:24;;;;;;;4.25;1.35;;;16.60;47.70;;;;;;5002596;28;20490;-44
2022/10/09 11:54:51;;;;;;;4.80;1.30;;;16.60;47.80;;;;;;5001623;28;20064;-44
2022/10/09 11:57:27;;;;;;;5.25;1.15;;;16.60;48.00;;;;;;5000940;28;20054;-43
2022/10/09 12:00:04;;;;;;;3.75;1.27;;;16.60;47.70;;;;;;4995565;28;20058;-41
2022/10/09 12:02:32;;;;;;;5.65;1.17;;;16.70;47.90;;;;;;4995747;28;20045;-42
2022/10/09 12:05:01;;;;;;;6.15;0.88;;;16.70;47.80;;;;;;4998139;28;20227;-42
2022/10/09 12:07:31;;;;;;;5.43;1.20;;;16.70;47.60;;;;;;5003356;28;20046;-43
2022/10/09 12:10:02;;;;;;;2.15;0.95;;;16.80;47.70;;;;;;5001000;28;20061;-43
2022/10/09 12:12:31;;;;;;;3.65;1.02;;;16.80;47.80;;;;;;5001595;28;20057;-40
2022/10/09 12:15:09;;;;;;;2.88;1.20;;;16.90;47.90;;;;;;4999228;28;20061;-47
2022/10/09 12:17:48;;;;;;;3.75;1.17;;;16.90;47.90;;;;;;4998970;28;20480;-43
2022/10/09 12:20:22;;;;;;;4.72;1.42;;;16.90;47.60;;;;;;4999055;28;20069;-41
2022/10/09 12:22:54;;;;;;;6.28;1.30;;;17.00;47.40;;;;;;4999700;28;20060;-43
2022/10/09 12:25:28;;;;;;;5.13;1.20;;;17.00;47.20;;;;;;4998388;28;20521;-39
2022/10/09 12:27:57;;;;;;;3.05;0.98;;;17.00;47.10;;;;;;4997312;28;20061;-39
2022/10/09 12:30:31;;;;;;;4.80;1.33;;;17.10;47.40;;;;;;4996441;28;20053;-45
2022/10/09 12:33:02;;;;;;;9.85;1.10;;;17.10;47.10;;;;;;4997707;28;20056;-43
2022/10/09 12:35:33;;;;;;;4.07;1.40;;;17.20;47.10;;;;;;4998904;28;20056;-40
2022/10/09 12:38:01;;;;;;;5.10;1.30;;;17.20;47.00;;;;;;5001093;28;20398;-41
2022/10/09 12:40:31;;;;;;;3.65;1.40;;;17.10;46.90;;;;;;4998299;28;20053;-44
2022/10/09 12:43:06;;;;;;;3.30;1.05;;;17.20;47.00;;;;;;5000239;28;20061;-44
2022/10/09 12:45:33;;;;;;;3.53;1.05;;;17.30;46.90;;;;;;4999666;28;20049;-46
2022/10/09 12:48:11;;;;;;;5.53;1.10;;;17.20;47.00;;;;;;5001983;28;20375;-42
2022/10/09 12:50:40;;;;;;;3.55;1.20;;;17.30;46.70;;;;;;4997291;28;20489;-44
2022/10/09 12:53:15;;;;;;;6.50;1.60;;;17.30;46.70;;;;;;5002464;28;20054;-45
2022/10/09 12:55:45;;;;;;;2.22;1.13;;;17.40;46.70;;;;;;4997622;28;20505;-46
2022/10/09 12:58:18;;;;;;;3.60;1.23;;;17.40;46.60;;;;;;5001647;28;20433;-42
2022/10/09 13:00:46;;;;;;;3.50;0.98;;;17.40;46.60;;;;;;4997840;28;20050;-43
2022/10/09 13:03:33;;;;;;;2.28;0.90;;;17.40;46.60;;;;;;4997336;28;20057;-43
2022/10/09 13:06:03;;;;;;;3.58;1.30;;;17.50;46.40;;;;;;5001600;28;20061;-45